Time,TemperatureC,DewpointC,PressurehPa,WindDirection,WindDirectionDegrees,WindSpeedKMH,WindSpeedGustKMH,Humidity,HourlyPrecipMM,Conditions,Clouds,dailyrainMM,SolarRadiationWatts/m^2,UVIndex,SoftwareType,DateUTC
2021-12-02 00:00:00,-6.2,-7.6,997.9,ENE,71,35.4,59.5,90,0.0,,,0.0,,,n/a,2021-12-01T23:00:00Z
2021-12-02 00:10:00,-6.4,-7.7,998.4,East,80,37,53.1,91,0.0,,,0.0,,,n/a,2021-12-01T23:10:00Z
2021-12-02 00:20:00,-6.5,-7.6,998.5,East,79,29,43.5,92,0.0,,,0.0,,,n/a,2021-12-01T23:20:00Z
2021-12-02 00:30:00,-6.5,-7.4,998.5,ENE,72,29,46.7,93,0.0,,,0.0,,,n/a,2021-12-01T23:30:00Z
2021-12-02 00:40:00,-6.6,-7.6,998.7,ENE,75,29,46.7,93,0.0,,,0.0,,,n/a,2021-12-01T23:40:00Z
2021-12-02 00:50:00,-6.7,-7.6,998.7,ENE,74,37,61.2,93,0.0,,,0.0,,,n/a,2021-12-01T23:50:00Z
2021-12-02 01:00:00,-6.7,-7.5,999.0,East,82,33.8,49.9,94,0.0,,,0.0,,,n/a,2021-12-02T00:00:00Z
2021-12-02 01:10:00,-6.7,-7.5,998.9,East,79,35.4,48.3,94,0.0,,,0.0,,,n/a,2021-12-02T00:10:00Z
2021-12-02 01:20:00,-6.7,-7.5,999.1,ENE,78,32.2,51.5,94,0.0,,,0.0,,,n/a,2021-12-02T00:20:00Z
2021-12-02 01:30:00,-6.7,-7.4,999.2,East,86,29,43.5,94,0.0,,,0.0,,,n/a,2021-12-02T00:30:00Z
2021-12-02 01:40:00,-6.5,-7.3,999.1,ENE,78,25.7,40.2,94,0.0,,,0.0,,,n/a,2021-12-02T00:40:00Z
2021-12-02 01:50:00,-6.3,-7.2,999.3,ENE,69,22.5,38.6,93,0.0,,,0.0,,,n/a,2021-12-02T00:50:00Z
2021-12-02 02:00:00,-5.4,-6.7,999.0,ENE,63,37,46.7,91,0.0,,,0.0,,,n/a,2021-12-02T01:00:00Z
2021-12-02 02:10:00,-5.3,-6.9,999.3,ENE,63,33.8,53.1,89,0.0,,,0.0,,,n/a,2021-12-02T01:10:00Z
2021-12-02 02:20:00,-5.3,-7.1,999.4,NE,55,27.4,46.7,87,0.0,,,0.0,,,n/a,2021-12-02T01:20:00Z
2021-12-02 02:30:00,-5.2,-7.2,999.4,ENE,66,33.8,49.9,86,0.0,,,0.0,,,n/a,2021-12-02T01:30:00Z
2021-12-02 02:40:00,-5.2,-7,999.7,ENE,61,25.7,45.1,87,0.0,,,0.0,,,n/a,2021-12-02T01:40:00Z
2021-12-02 02:50:00,-5.1,-7.1,999.6,ENE,62,27.4,48.3,86,0.0,,,0.0,,,n/a,2021-12-02T01:50:00Z
2021-12-02 03:00:00,-5.2,-7.1,999.9,ENE,66,24.1,51.5,87,0.0,,,0.0,,,n/a,2021-12-02T02:00:00Z
2021-12-02 03:10:00,-5.2,-7,999.9,East,79,29,45.1,87,0.0,,,0.0,,,n/a,2021-12-02T02:10:00Z
2021-12-02 03:20:00,-5.3,-6.7,1000.0,ENE,75,24.1,51.5,90,0.0,,,0.0,,,n/a,2021-12-02T02:20:00Z
2021-12-02 03:30:00,-4.9,-7,1000.0,ENE,61,24.1,41.8,85,0.0,,,0.0,,,n/a,2021-12-02T02:30:00Z
2021-12-02 03:40:00,-5.1,-6.9,1000.1,ENE,63,35.4,46.7,87,0.0,,,0.0,,,n/a,2021-12-02T02:40:00Z
2021-12-02 03:50:00,-5.3,-6.8,1000.2,ENE,66,25.7,45.1,89,0.0,,,0.0,,,n/a,2021-12-02T02:50:00Z
2021-12-02 04:00:00,-5,-7.1,1000.1,ENE,64,35.4,49.9,85,0.0,,,0.0,,,n/a,2021-12-02T03:00:00Z
2021-12-02 04:10:00,-5.2,-6.8,1000.3,ENE,66,27.4,53.1,88,0.0,,,0.0,,,n/a,2021-12-02T03:10:00Z
2021-12-02 04:20:00,-4.9,-6.9,1000.2,ENE,63,27.4,45.1,86,0.0,,,0.0,,,n/a,2021-12-02T03:20:00Z
2021-12-02 04:30:00,-4.8,-7.2,1000.3,ENE,60,38.6,49.9,83,0.0,,,0.0,,,n/a,2021-12-02T03:30:00Z
2021-12-02 04:40:00,-4.7,-7.3,1000.3,ENE,72,25.7,53.1,82,0.0,,,0.0,,,n/a,2021-12-02T03:40:00Z
2021-12-02 04:50:00,-4.7,-7.3,1000.4,ENE,62,33.8,48.3,82,0.0,,,0.0,,,n/a,2021-12-02T03:50:00Z
2021-12-02 05:00:00,-4.9,-7.3,1000.8,ENE,71,25.7,53.1,83,0.0,,,0.0,,,n/a,2021-12-02T04:00:00Z
2021-12-02 05:10:00,-4.7,-7.4,1001.0,NE,56,24.1,49.9,81,0.0,,,0.0,,,n/a,2021-12-02T04:10:00Z
2021-12-02 05:20:00,-5,-7.1,1001.2,ENE,66,32.2,45.1,85,0.0,,,0.0,,,n/a,2021-12-02T04:20:00Z
2021-12-02 05:30:00,-5.2,-6.9,1001.2,ENE,71,25.7,45.1,88,0.0,,,0.0,,,n/a,2021-12-02T04:30:00Z
2021-12-02 05:40:00,-5.1,-7.1,1001.4,ENE,72,20.9,45.1,86,0.0,,,0.0,,,n/a,2021-12-02T04:40:00Z
2021-12-02 05:50:00,-4.9,-7.2,1001.3,ENE,68,27.4,43.5,84,0.0,,,0.0,,,n/a,2021-12-02T04:50:00Z
2021-12-02 06:00:00,-4.9,-7.3,1001.6,ENE,71,24.1,45.1,83,0.0,,,0.0,,,n/a,2021-12-02T05:00:00Z
2021-12-02 06:10:00,-4.8,-7.4,1001.6,ENE,62,22.5,45.1,82,0.0,,,0.0,,,n/a,2021-12-02T05:10:00Z
2021-12-02 06:20:00,-4.6,-7.7,1001.7,ENE,60,27.4,45.1,79,0.0,,,0.0,,,n/a,2021-12-02T05:20:00Z
2021-12-02 06:30:00,-4.7,-7.8,1001.5,ENE,62,27.4,43.5,79,0.0,,,0.0,,,n/a,2021-12-02T05:30:00Z
2021-12-02 06:40:00,-4.8,-7.7,1001.8,ENE,65,33.8,49.9,80,0.0,,,0.0,,,n/a,2021-12-02T05:40:00Z
2021-12-02 06:50:00,-5.3,-7.1,1002.0,ENE,77,29,48.3,87,0.0,,,0.0,,,n/a,2021-12-02T05:50:00Z
2021-12-02 07:00:00,-5.6,-6.9,1002.1,ENE,70,25.7,40.2,90,0.0,,,0.0,,,n/a,2021-12-02T06:00:00Z
2021-12-02 07:10:00,-5.1,-7.5,1002.3,ENE,67,24.1,45.1,83,0.0,,,0.0,,,n/a,2021-12-02T06:10:00Z